Portada
Imágenes satélite Pronóstico 15 díasClimaPredicción Marítima Ciclones Rayo AeropuertosFAQ Noticias Acerca
El tiempo : Europa África América del Norte América del Sur Asia Australia-Oceanía Otros
Idiomas Contacto

Madrid, España

Barajas

latitud: 40-27N, longitud: 003-33W, altitud: 609 m


METAR: LEMD 311000Z 00000KT CAVOK 17/09 Q1025 NOSIG
TAF: LEMD 310500Z 3106/0112 VRB04KT CAVOK TX24/3115Z TN08/0106Z

Hora: 11:32 (10:32 UTC)

Observación

El informe se hizo hace 32 minutos, a las 10:00 UTC
Viento calma
Temperatura 17°C
Humedad 59%
Presión 1025 hPa
Visibilidad 10 km o más
sin nubes por debajo de 1500 m y sin presencia de cumulonimbus.

Cambiar las unidades

Pronóstico

El informe se hizo hace 5 horas y 32 minutos, a las 05:00 UTC
Pronóstico válido del 31 a las 06 UTC al 01 a las 12 UTC
Viento 4 kt con dirección variable
Visibilidad 10 km o más
sin nubes por debajo de 1500 m y sin presencia de cumulonimbus.
La información que se ofrece en estas páginas está sujeta a una cláusula de exención de responsabilidad
El tiempo : Europa África América del Norte América del Sur Asia Australia-Oceanía Otros
Imágenes satélite Pronóstico 15 díasClimaPredicción Marítima Ciclones Rayo AeropuertosFAQ Idiomas Contacto Noticias Acerca